sensor_id;sensor_type;location;lat;lon;timestamp;P1;durP1;ratioP1;P2;durP2;ratioP2
25687;SDS011;17407;51.120;3.702;2022-09-02T00:01:02;13.18;;;4.88;;
25687;SDS011;17407;51.120;3.702;2022-09-02T00:03:35;14.55;;;4.68;;
25687;SDS011;17407;51.120;3.702;2022-09-02T00:06:01;9.38;;;4.80;;
25687;SDS011;17407;51.120;3.702;2022-09-02T00:08:27;12.38;;;5.10;;
25687;SDS011;17407;51.120;3.702;2022-09-02T00:10:56;7.22;;;4.47;;
25687;SDS011;17407;51.120;3.702;2022-09-02T00:13:22;12.75;;;4.97;;
25687;SDS011;17407;51.120;3.702;2022-09-02T00:15:49;12.60;;;4.82;;
25687;SDS011;17407;51.120;3.702;2022-09-02T00:18:15;14.50;;;5.43;;
25687;SDS011;17407;51.120;3.702;2022-09-02T00:20:42;8.77;;;4.30;;
25687;SDS011;17407;51.120;3.702;2022-09-02T00:23:10;10.73;;;4.75;;
25687;SDS011;17407;51.120;3.702;2022-09-02T00:25:37;10.48;;;5.25;;
25687;SDS011;17407;51.120;3.702;2022-09-02T00:28:04;9.27;;;5.32;;
25687;SDS011;17407;51.120;3.702;2022-09-02T00:30:31;10.60;;;4.57;;
25687;SDS011;17407;51.120;3.702;2022-09-02T00:32:57;11.70;;;4.35;;
25687;SDS011;17407;51.120;3.702;2022-09-02T00:35:23;9.13;;;5.07;;
25687;SDS011;17407;51.120;3.702;2022-09-02T00:37:50;12.27;;;4.82;;
25687;SDS011;17407;51.120;3.702;2022-09-02T00:40:16;12.80;;;5.50;;
25687;SDS011;17407;51.120;3.702;2022-09-02T00:42:42;13.60;;;4.78;;
25687;SDS011;17407;51.120;3.702;2022-09-02T00:45:08;8.45;;;4.80;;
25687;SDS011;17407;51.120;3.702;2022-09-02T00:47:34;7.50;;;5.03;;
25687;SDS011;17407;51.120;3.702;2022-09-02T00:50:01;10.18;;;4.50;;
25687;SDS011;17407;51.120;3.702;2022-09-02T00:52:31;9.63;;;4.45;;
25687;SDS011;17407;51.120;3.702;2022-09-02T00:55:07;10.52;;;4.80;;
25687;SDS011;17407;51.120;3.702;2022-09-02T00:57:59;7.10;;;4.85;;
25687;SDS011;17407;51.120;3.702;2022-09-02T01:00:35;9.40;;;4.63;;
25687;SDS011;17407;51.120;3.702;2022-09-02T01:03:07;7.65;;;4.28;;
25687;SDS011;17407;51.120;3.702;2022-09-02T01:05:36;11.88;;;5.43;;
25687;SDS011;17407;51.120;3.702;2022-09-02T01:08:03;9.30;;;5.03;;
25687;SDS011;17407;51.120;3.702;2022-09-02T01:10:33;13.15;;;5.10;;
25687;SDS011;17407;51.120;3.702;2022-09-02T01:13:02;14.88;;;4.55;;
25687;SDS011;17407;51.120;3.702;2022-09-02T01:15:31;13.10;;;5.00;;
25687;SDS011;17407;51.120;3.702;2022-09-02T01:18:01;7.30;;;5.07;;
25687;SDS011;17407;51.120;3.702;2022-09-02T01:20:29;6.18;;;4.53;;
25687;SDS011;17407;51.120;3.702;2022-09-02T01:22:55;8.20;;;5.13;;
25687;SDS011;17407;51.120;3.702;2022-09-02T01:25:25;7.65;;;4.80;;
25687;SDS011;17407;51.120;3.702;2022-09-02T01:27:53;10.65;;;5.63;;
25687;SDS011;17407;51.120;3.702;2022-09-02T01:30:24;10.23;;;5.20;;
25687;SDS011;17407;51.120;3.702;2022-09-02T01:32:50;9.35;;;5.47;;
25687;SDS011;17407;51.120;3.702;2022-09-02T01:35:16;10.75;;;4.85;;
25687;SDS011;17407;51.120;3.702;2022-09-02T01:37:43;8.02;;;4.85;;
25687;SDS011;17407;51.120;3.702;2022-09-02T01:40:10;16.48;;;5.35;;
25687;SDS011;17407;51.120;3.702;2022-09-02T01:42:38;9.20;;;5.07;;
25687;SDS011;17407;51.120;3.702;2022-09-02T01:45:04;8.77;;;5.57;;
25687;SDS011;17407;51.120;3.702;2022-09-02T01:47:31;11.00;;;5.95;;
25687;SDS011;17407;51.120;3.702;2022-09-02T01:49:57;15.00;;;5.65;;
25687;SDS011;17407;51.120;3.702;2022-09-02T01:52:24;7.15;;;4.55;;
25687;SDS011;17407;51.120;3.702;2022-09-02T01:54:52;12.82;;;5.45;;
25687;SDS011;17407;51.120;3.702;2022-09-02T01:57:18;9.48;;;5.18;;
25687;SDS011;17407;51.120;3.702;2022-09-02T01:59:44;8.55;;;4.68;;
25687;SDS011;17407;51.120;3.702;2022-09-02T02:02:11;11.55;;;5.20;;
25687;SDS011;17407;51.120;3.702;2022-09-02T02:04:37;7.05;;;4.43;;
25687;SDS011;17407;51.120;3.702;2022-09-02T02:07:03;7.20;;;5.13;;
25687;SDS011;17407;51.120;3.702;2022-09-02T02:09:30;11.40;;;5.55;;
25687;SDS011;17407;51.120;3.702;2022-09-02T02:11:55;11.00;;;5.95;;
25687;SDS011;17407;51.120;3.702;2022-09-02T02:14:21;14.15;;;5.75;;
25687;SDS011;17407;51.120;3.702;2022-09-02T02:16:47;11.98;;;6.35;;
25687;SDS011;17407;51.120;3.702;2022-09-02T02:19:14;13.52;;;6.40;;
25687;SDS011;17407;51.120;3.702;2022-09-02T02:21:39;9.25;;;5.32;;
25687;SDS011;17407;51.120;3.702;2022-09-02T02:24:06;11.20;;;6.28;;
25687;SDS011;17407;51.120;3.702;2022-09-02T02:26:32;8.40;;;5.63;;
25687;SDS011;17407;51.120;3.702;2022-09-02T02:28:59;12.43;;;5.47;;
25687;SDS011;17407;51.120;3.702;2022-09-02T02:31:25;8.70;;;5.85;;
25687;SDS011;17407;51.120;3.702;2022-09-02T02:33:51;10.00;;;5.72;;
25687;SDS011;17407;51.120;3.702;2022-09-02T02:36:17;12.63;;;5.93;;
25687;SDS011;17407;51.120;3.702;2022-09-02T02:38:43;14.90;;;6.13;;
25687;SDS011;17407;51.120;3.702;2022-09-02T02:41:10;11.45;;;5.65;;
25687;SDS011;17407;51.120;3.702;2022-09-02T02:43:37;9.43;;;6.35;;
25687;SDS011;17407;51.120;3.702;2022-09-02T02:46:04;10.52;;;6.15;;
25687;SDS011;17407;51.120;3.702;2022-09-02T02:48:31;11.60;;;6.28;;
25687;SDS011;17407;51.120;3.702;2022-09-02T02:50:57;9.07;;;5.95;;
25687;SDS011;17407;51.120;3.702;2022-09-02T02:53:23;13.07;;;6.15;;
25687;SDS011;17407;51.120;3.702;2022-09-02T02:55:49;12.00;;;5.90;;
25687;SDS011;17407;51.120;3.702;2022-09-02T02:58:14;12.32;;;6.40;;
25687;SDS011;17407;51.120;3.702;2022-09-02T03:00:40;11.13;;;6.78;;
25687;SDS011;17407;51.120;3.702;2022-09-02T03:03:08;11.52;;;6.95;;
25687;SDS011;17407;51.120;3.702;2022-09-02T03:05:34;10.55;;;6.75;;
25687;SDS011;17407;51.120;3.702;2022-09-02T03:08:02;12.18;;;6.18;;
25687;SDS011;17407;51.120;3.702;2022-09-02T03:10:30;12.10;;;7.57;;
25687;SDS011;17407;51.120;3.702;2022-09-02T03:12:57;16.40;;;7.13;;
25687;SDS011;17407;51.120;3.702;2022-09-02T03:15:26;11.05;;;6.50;;
25687;SDS011;17407;51.120;3.702;2022-09-02T03:17:53;11.95;;;6.50;;
25687;SDS011;17407;51.120;3.702;2022-09-02T03:20:20;9.07;;;6.47;;
25687;SDS011;17407;51.120;3.702;2022-09-02T03:22:47;12.20;;;6.78;;
25687;SDS011;17407;51.120;3.702;2022-09-02T03:25:15;12.88;;;7.22;;
25687;SDS011;17407;51.120;3.702;2022-09-02T03:27:43;13.98;;;7.18;;
25687;SDS011;17407;51.120;3.702;2022-09-02T03:30:10;11.60;;;6.93;;
25687;SDS011;17407;51.120;3.702;2022-09-02T03:32:38;11.85;;;6.90;;
25687;SDS011;17407;51.120;3.702;2022-09-02T03:35:05;10.68;;;6.53;;
25687;SDS011;17407;51.120;3.702;2022-09-02T03:37:34;10.82;;;7.30;;
25687;SDS011;17407;51.120;3.702;2022-09-02T03:40:01;9.88;;;6.70;;
25687;SDS011;17407;51.120;3.702;2022-09-02T03:42:32;10.38;;;6.93;;
25687;SDS011;17407;51.120;3.702;2022-09-02T03:44:58;11.82;;;7.43;;
25687;SDS011;17407;51.120;3.702;2022-09-02T03:47:24;10.02;;;6.57;;
25687;SDS011;17407;51.120;3.702;2022-09-02T03:49:52;12.00;;;7.40;;
25687;SDS011;17407;51.120;3.702;2022-09-02T03:52:18;14.15;;;7.30;;
25687;SDS011;17407;51.120;3.702;2022-09-02T03:54:44;12.90;;;7.03;;
25687;SDS011;17407;51.120;3.702;2022-09-02T03:57:10;12.05;;;7.07;;
25687;SDS011;17407;51.120;3.702;2022-09-02T03:59:35;13.13;;;6.80;;
25687;SDS011;17407;51.120;3.702;2022-09-02T04:02:01;9.25;;;7.18;;
25687;SDS011;17407;51.120;3.702;2022-09-02T04:04:29;14.98;;;7.20;;
25687;SDS011;17407;51.120;3.702;2022-09-02T04:06:55;11.25;;;7.22;;
25687;SDS011;17407;51.120;3.702;2022-09-02T04:09:21;14.10;;;8.00;;
25687;SDS011;17407;51.120;3.702;2022-09-02T04:11:47;12.52;;;7.25;;
25687;SDS011;17407;51.120;3.702;2022-09-02T04:14:13;20.98;;;8.43;;
25687;SDS011;17407;51.120;3.702;2022-09-02T04:16:39;13.40;;;6.97;;
25687;SDS011;17407;51.120;3.702;2022-09-02T04:19:04;16.58;;;7.85;;
25687;SDS011;17407;51.120;3.702;2022-09-02T04:21:31;17.30;;;8.20;;
25687;SDS011;17407;51.120;3.702;2022-09-02T04:23:58;20.90;;;8.48;;
25687;SDS011;17407;51.120;3.702;2022-09-02T04:26:24;13.60;;;7.93;;
25687;SDS011;17407;51.120;3.702;2022-09-02T04:28:50;15.48;;;8.35;;
25687;SDS011;17407;51.120;3.702;2022-09-02T04:31:18;12.60;;;7.85;;
25687;SDS011;17407;51.120;3.702;2022-09-02T04:33:46;14.25;;;8.50;;
25687;SDS011;17407;51.120;3.702;2022-09-02T04:36:13;9.93;;;7.43;;
25687;SDS011;17407;51.120;3.702;2022-09-02T04:38:41;12.90;;;8.10;;
25687;SDS011;17407;51.120;3.702;2022-09-02T04:41:12;14.27;;;7.95;;
25687;SDS011;17407;51.120;3.702;2022-09-02T04:43:40;15.55;;;8.60;;
25687;SDS011;17407;51.120;3.702;2022-09-02T04:46:06;13.35;;;8.45;;
25687;SDS011;17407;51.120;3.702;2022-09-02T04:48:34;13.35;;;8.25;;
25687;SDS011;17407;51.120;3.702;2022-09-02T04:51:08;12.45;;;7.72;;
25687;SDS011;17407;51.120;3.702;2022-09-02T04:53:37;15.32;;;8.77;;
25687;SDS011;17407;51.120;3.702;2022-09-02T04:56:07;14.60;;;8.50;;
25687;SDS011;17407;51.120;3.702;2022-09-02T04:58:34;13.35;;;8.30;;
25687;SDS011;17407;51.120;3.702;2022-09-02T05:01:05;15.48;;;8.35;;
25687;SDS011;17407;51.120;3.702;2022-09-02T05:03:31;16.23;;;8.60;;
25687;SDS011;17407;51.120;3.702;2022-09-02T05:06:02;13.05;;;8.10;;
25687;SDS011;17407;51.120;3.702;2022-09-02T05:08:29;11.05;;;7.57;;
